Time;durP1;ratioP1;P1;durP2;ratioP2;P2;SDS_P1;SDS_P2;PMS_P1;PMS_P2;Temp;Humidity;BMP_temperature;BMP_pressure;BME280_temperature;BME280_humidity;BME280_pressure;Samples;Min_cycle;Max_cycle;Signal;HPM_P1;HPM_P2
2021/08/21 00:01:33;;;;;;;6.95;5.00;;;23.10;70.50;;;;;;4953800;29;20023;-87
2021/08/21 00:04:04;;;;;;;5.95;4.88;;;23.10;70.50;;;;;;4953474;28;20387;-87
2021/08/21 00:06:38;;;;;;;5.03;4.53;;;23.10;70.60;;;;;;4953094;29;20039;-86
2021/08/21 00:09:07;;;;;;;6.32;5.47;;;23.10;70.50;;;;;;4937228;29;20039;-86
2021/08/21 00:11:33;;;;;;;5.63;4.95;;;23.10;70.80;;;;;;4952577;29;20043;-86
2021/08/21 00:14:04;;;;;;;6.95;4.70;;;23.10;70.90;;;;;;4953177;29;20058;-86
2021/08/21 00:16:31;;;;;;;9.15;4.80;;;23.10;70.90;;;;;;4937306;29;20035;-87
2021/08/21 00:19:01;;;;;;;8.55;4.97;;;23.20;70.90;;;;;;4953245;29;20138;-86
2021/08/21 00:21:27;;;;;;;7.55;4.50;;;23.20;71.40;;;;;;4953145;29;20077;-87
2021/08/21 00:23:54;;;;;;;5.13;4.60;;;23.20;71.00;;;;;;4953106;29;20126;-87
2021/08/21 00:26:22;;;;;;;6.68;4.20;;;23.20;71.00;;;;;;4953271;28;20043;-85
2021/08/21 00:28:48;;;;;;;5.43;4.82;;;23.20;71.20;;;;;;4953955;28;20535;-85
2021/08/21 00:31:17;;;;;;;5.57;4.25;;;23.10;71.10;;;;;;4936310;29;20418;-86
2021/08/21 00:33:44;;;;;;;8.05;4.70;;;23.10;70.90;;;;;;4952543;29;20085;-86
2021/08/21 00:36:10;;;;;;;4.55;4.15;;;23.10;71.10;;;;;;4936333;29;20035;-85
2021/08/21 00:38:39;;;;;;;6.32;4.22;;;23.10;71.00;;;;;;4952512;29;20038;-85
2021/08/21 00:41:08;;;;;;;4.50;4.10;;;23.10;70.90;;;;;;4949829;29;20035;-87
2021/08/21 00:43:36;;;;;;;4.97;4.22;;;23.00;71.00;;;;;;4946660;29;20039;-87
2021/08/21 00:46:04;;;;;;;4.68;3.80;;;22.90;71.20;;;;;;4957169;28;20058;-87
2021/08/21 00:48:31;;;;;;;11.65;4.07;;;23.00;71.30;;;;;;4936974;29;20036;-87
2021/08/21 00:51:05;;;;;;;;;;;22.80;71.30;;;;;;4954494;28;20399;-87
2021/08/21 00:53:37;;;;;;;9.38;4.50;;;22.80;71.50;;;;;;4952618;29;19920;-87
2021/08/21 00:56:05;;;;;;;4.72;3.95;;;22.80;71.50;;;;;;4952722;29;20069;-87
2021/08/21 00:58:42;;;;;;;6.00;4.13;;;22.80;71.60;;;;;;4952674;29;20027;-85
2021/08/21 01:01:23;;;;;;;;;;;;;;;;;;;;;
2021/08/21 01:04:15;;;;;;;8.23;4.72;;;22.70;71.80;;;;;;4952427;28;20047;-89
2021/08/21 01:06:50;;;;;;;6.47;4.20;;;22.60;72.00;;;;;;4937305;29;20090;-88
2021/08/21 01:09:21;;;;;;;7.25;3.92;;;22.70;72.10;;;;;;4952123;28;20058;-88
2021/08/21 01:11:55;;;;;;;5.45;4.40;;;22.70;72.00;;;;;;4952083;29;20039;-88
2021/08/21 01:14:27;;;;;;;5.80;4.22;;;22.70;72.10;;;;;;4936639;29;20462;-86
2021/08/21 01:16:57;;;;;;;6.85;3.53;;;22.70;72.00;;;;;;4938732;29;20039;-88
2021/08/21 01:19:30;;;;;;;5.55;3.78;;;22.70;72.10;;;;;;4955709;28;20031;-88
2021/08/21 01:22:12;;;;;;;6.22;4.15;;;22.60;72.20;;;;;;4956010;29;20027;-88
2021/08/21 01:24:54;;;;;;;5.28;3.40;;;22.60;72.40;;;;;;4971124;28;20063;-88
2021/08/21 01:27:35;;;;;;;4.88;4.05;;;22.50;72.60;;;;;;4961280;29;20031;-87
2021/08/21 01:30:33;;;;;;;4.13;3.67;;;22.50;72.60;;;;;;4951930;28;20043;-87
2021/08/21 01:33:21;;;;;;;3.97;3.58;;;22.60;72.70;;;;;;4967197;29;20043;-88
2021/08/21 01:35:54;;;;;;;5.55;3.40;;;22.60;72.90;;;;;;4942173;29;20053;-87
2021/08/21 01:38:23;;;;;;;3.78;3.38;;;22.50;72.90;;;;;;4940760;29;20034;-88
2021/08/21 01:41:02;;;;;;;4.63;3.53;;;22.50;73.00;;;;;;4941097;29;20458;-88
2021/08/21 01:43:38;;;;;;;5.35;3.60;;;22.60;73.00;;;;;;4939811;29;20035;-87
2021/08/21 01:46:14;;;;;;;8.55;4.20;;;22.50;72.80;;;;;;4955142;29;20063;-88
2021/08/21 01:48:52;;;;;;;4.30;3.58;;;22.50;72.80;;;;;;4940322;29;20066;-86
2021/08/21 01:51:19;;;;;;;4.93;4.43;;;22.50;72.90;;;;;;4939517;29;20049;-86
2021/08/21 01:53:45;;;;;;;5.40;3.58;;;22.60;73.00;;;;;;4939213;29;20065;-86
2021/08/21 01:56:17;;;;;;;7.47;3.50;;;22.60;73.00;;;;;;4939140;29;20090;-87
2021/08/21 01:58:55;;;;;;;4.70;3.67;;;22.50;72.60;;;;;;4955093;29;20090;-86
2021/08/21 02:01:31;;;;;;;5.88;3.50;;;22.50;73.10;;;;;;4940197;29;20090;-87
2021/08/21 02:04:24;;;;;;;6.53;3.53;;;22.40;72.70;;;;;;4954651;29;20031;-87
2021/08/21 02:06:53;;;;;;;6.00;3.33;;;22.40;72.70;;;;;;4939138;29;20039;-87
2021/08/21 02:09:24;;;;;;;4.78;3.20;;;22.40;72.70;;;;;;4956063;28;20546;-87
2021/08/21 02:11:55;;;;;;;5.68;3.67;;;22.40;72.40;;;;;;4954965;29;20514;-87
2021/08/21 02:14:32;;;;;;;4.00;3.05;;;22.40;72.40;;;;;;4939227;29;20039;-87
2021/08/21 02:17:01;;;;;;;3.80;3.13;;;22.30;72.30;;;;;;4943645;29;20514;-88
2021/08/21 02:19:28;;;;;;;4.57;2.95;;;22.30;72.20;;;;;;4967617;29;20043;-88
2021/08/21 02:22:06;;;;;;;3.65;3.25;;;22.20;72.10;;;;;;4950850;29;20038;-88
2021/08/21 02:24:36;;;;;;;4.03;2.90;;;22.30;72.30;;;;;;4956638;29;20101;-88
2021/08/21 02:27:03;;;;;;;6.80;3.63;;;22.30;72.10;;;;;;4938652;29;20422;-88
2021/08/21 02:29:35;;;;;;;5.78;3.20;;;22.30;71.90;;;;;;4938639;29;20113;-86
2021/08/21 02:34:50;;;;;;;4.75;2.90;;;22.30;71.30;;;;;;4954333;29;20062;-87
2021/08/21 02:37:19;;;;;;;8.68;2.90;;;22.40;71.20;;;;;;4938379;29;20052;-86
2021/08/21 02:39:48;;;;;;;8.45;2.80;;;22.30;70.90;;;;;;4954130;28;20131;-86
2021/08/21 02:42:15;;;;;;;6.53;2.83;;;22.30;70.90;;;;;;4955739;28;20506;-89
2021/08/21 02:44:44;;;;;;;5.22;2.67;;;22.20;70.40;;;;;;4954018;28;20066;-88
2021/08/21 02:47:13;;;;;;;5.25;2.47;;;22.20;70.30;;;;;;4938214;29;20537;-86
2021/08/21 02:49:59;;;;;;;2.88;2.40;;;22.10;70.20;;;;;;4954825;28;20046;-86
2021/08/21 02:52:30;;;;;;;5.10;3.03;;;22.10;70.10;;;;;;4954570;29;20035;-87
2021/08/21 02:54:58;;;;;;;2.60;2.38;;;22.10;69.90;;;;;;4954339;29;20035;-87
2021/08/21 02:57:29;;;;;;;4.15;2.08;;;22.10;70.00;;;;;;4954037;29;20039;-86
2021/08/21 02:59:58;;;;;;;7.88;2.60;;;22.00;69.60;;;;;;4938064;29;20031;-86
2021/08/21 03:02:37;;;;;;;4.07;2.20;;;22.10;69.80;;;;;;4954010;29;20031;-86
2021/08/21 03:05:03;;;;;;;5.80;2.70;;;22.10;69.60;;;;;;4951723;29;20054;-85
2021/08/21 03:07:32;;;;;;;4.18;2.40;;;22.10;69.50;;;;;;4957691;29;20035;-85
2021/08/21 03:10:08;;;;;;;4.35;2.30;;;22.10;69.40;;;;;;4972135;29;20058;-86
2021/08/21 03:12:50;;;;;;;4.32;2.00;;;22.00;69.40;;;;;;4941929;29;20438;-87
2021/08/21 03:15:19;;;;;;;4.03;2.20;;;21.90;68.90;;;;;;4937768;29;20079;-86
2021/08/21 03:17:48;;;;;;;3.03;2.17;;;21.90;69.10;;;;;;4937582;29;20042;-87
2021/08/21 03:20:17;;;;;;;3.70;2.30;;;21.80;69.20;;;;;;4938031;29;20035;-86
2021/08/21 03:22:45;;;;;;;5.70;2.33;;;21.80;69.20;;;;;;4953395;28;20071;-85
2021/08/21 03:25:17;;;;;;;4.80;2.30;;;21.90;69.30;;;;;;4938302;29;20039;-86
2021/08/21 03:27:50;;;;;;;5.00;2.45;;;21.90;69.20;;;;;;4953233;29;20113;-86
2021/08/21 03:30:19;;;;;;;3.05;2.22;;;21.90;69.20;;;;;;4937358;29;20043;-86
2021/08/21 03:32:50;;;;;;;3.70;2.42;;;21.90;69.00;;;;;;4937869;29;20049;-85
2021/08/21 03:35:21;;;;;;;4.00;2.35;;;22.00;69.00;;;;;;4953426;29;20063;-85
2021/08/21 03:37:52;;;;;;;5.32;1.92;;;22.00;68.70;;;;;;4937802;28;20047;-86
2021/08/21 03:40:26;;;;;;;3.90;2.20;;;22.00;68.90;;;;;;4936759;29;20111;-88
2021/08/21 03:43:07;;;;;;;7.40;2.47;;;22.00;68.80;;;;;;4939276;29;20038;-86
2021/08/21 03:45:36;;;;;;;2.35;1.77;;;22.00;68.60;;;;;;4953033;28;20434;-86
2021/08/21 03:48:03;;;;;;;4.55;2.10;;;22.00;68.40;;;;;;4937089;29;20035;-86
2021/08/21 03:50:31;;;;;;;3.65;2.05;;;22.00;68.60;;;;;;4953224;29;20035;-86
2021/08/21 03:52:58;;;;;;;3.65;2.33;;;22.00;68.70;;;;;;4942554;29;20106;-85
2021/08/21 03:55:25;;;;;;;5.13;2.15;;;22.10;69.20;;;;;;4947271;29;20035;-87
2021/08/21 03:57:51;;;;;;;6.47;2.97;;;22.10;69.30;;;;;;4947082;29;20062;-86
2021/08/21 04:00:17;;;;;;;3.92;2.00;;;22.20;69.10;;;;;;4954446;29;20043;-86
2021/08/21 04:02:48;;;;;;;3.97;1.80;;;22.10;68.60;;;;;;4953251;29;20117;-86
2021/08/21 04:05:21;;;;;;;3.15;2.08;;;22.00;68.40;;;;;;4952790;29;20035;-86
2021/08/21 04:07:47;;;;;;;2.85;2.45;;;22.00;68.70;;;;;;4936805;29;20131;-86
2021/08/21 04:10:14;;;;;;;4.97;2.05;;;22.00;68.70;;;;;;4936950;29;20537;-86
2021/08/21 04:12:40;;;;;;;5.15;1.70;;;22.00;69.50;;;;;;4952549;29;20463;-86
2021/08/21 04:15:13;;;;;;;5.28;2.30;;;22.00;69.20;;;;;;4952449;29;20050;-86
2021/08/21 04:17:40;;;;;;;4.18;2.00;;;22.00;69.20;;;;;;4936673;29;20042;-87
2021/08/21 04:20:07;;;;;;;2.80;1.88;;;22.00;68.90;;;;;;4937117;29;20031;-87
2021/08/21 04:22:38;;;;;;;3.17;2.10;;;21.90;68.90;;;;;;4937439;29;20040;-86
2021/08/21 04:25:04;;;;;;;4.80;2.17;;;21.90;69.20;;;;;;4936981;29;20450;-87
2021/08/21 04:27:30;;;;;;;5.30;2.40;;;21.90;69.40;;;;;;4952899;29;20046;-87
2021/08/21 04:29:57;;;;;;;3.65;2.15;;;21.90;69.60;;;;;;4952887;29;20461;-86
2021/08/21 04:32:23;;;;;;;4.47;2.17;;;22.00;69.50;;;;;;4937327;29;20047;-86
2021/08/21 04:34:50;;;;;;;3.42;1.90;;;21.90;69.40;;;;;;4936887;29;20039;-86
2021/08/21 04:37:16;;;;;;;6.07;1.80;;;22.00;69.50;;;;;;4952728;29;20027;-86
2021/08/21 04:39:42;;;;;;;6.75;2.22;;;22.00;69.70;;;;;;4954004;28;20039;-87
2021/08/21 04:42:11;;;;;;;4.47;2.28;;;22.00;69.60;;;;;;4964407;29;20582;-87
2021/08/21 04:44:38;;;;;;;2.65;1.90;;;22.00;70.20;;;;;;4955919;29;20052;-86
2021/08/21 04:47:06;;;;;;;5.20;1.95;;;22.00;69.80;;;;;;4949793;29;20027;-86
2021/08/21 04:49:32;;;;;;;3.70;1.90;;;22.10;69.60;;;;;;4960005;28;20502;-88
2021/08/21 04:52:01;;;;;;;4.15;2.03;;;22.00;69.50;;;;;;4940623;29;20046;-88
2021/08/21 04:54:27;;;;;;;2.55;1.80;;;22.00;69.70;;;;;;4940074;29;20038;-87
2021/08/21 04:56:53;;;;;;;3.33;1.95;;;22.10;69.60;;;;;;4940397;29;20414;-87
2021/08/21 04:59:37;;;;;;;;;;;;;;;;;;;;;
2021/08/21 05:02:14;;;;;;;5.10;1.80;;;22.10;69.80;;;;;;4955958;29;20036;-88
2021/08/21 05:04:46;;;;;;;7.28;1.80;;;22.20;70.30;;;;;;4940866;29;20502;-88
2021/08/21 05:07:13;;;;;;;1.70;1.60;;;22.30;70.30;;;;;;4940090;29;20201;-88
2021/08/21 05:09:44;;;;;;;3.78;1.70;;;22.30;69.40;;;;;;4940730;29;20031;-87
2021/08/21 05:12:25;;;;;;;4.95;1.70;;;22.30;69.10;;;;;;4955901;29;20039;-87
2021/08/21 05:15:21;;;;;;;3.78;1.80;;;22.20;68.90;;;;;;4955809;29;20042;-89
2021/08/21 05:18:08;;;;;;;4.47;2.10;;;22.20;69.20;;;;;;4956704;28;20086;-89
2021/08/21 05:20:51;;;;;;;1.95;1.70;;;22.30;69.00;;;;;;4941190;29;20043;-89
2021/08/21 05:23:20;;;;;;;4.45;1.77;;;22.30;69.40;;;;;;4955415;29;20061;-89
2021/08/21 05:25:57;;;;;;;;;;;;;;;;;;;;;
2021/08/21 05:28:35;;;;;;;4.88;1.90;;;22.50;68.80;;;;;;4957183;29;20532;-92
2021/08/21 05:31:15;;;;;;;3.90;1.95;;;22.50;68.40;;;;;;4960749;28;20019;-87
2021/08/21 05:33:54;;;;;;;3.35;1.95;;;22.70;68.20;;;;;;4970957;29;20058;-84
2021/08/21 05:36:23;;;;;;;2.30;2.10;;;22.90;67.80;;;;;;4959743;29;20047;-86
2021/08/21 05:38:52;;;;;;;4.35;1.75;;;23.10;67.30;;;;;;4954286;28;20126;-87
2021/08/21 05:41:18;;;;;;;4.95;1.80;;;23.30;67.20;;;;;;4928188;29;20103;-86
2021/08/21 05:43:44;;;;;;;3.13;1.75;;;23.50;66.50;;;;;;4953654;28;20039;-85
2021/08/21 05:46:10;;;;;;;2.28;1.40;;;23.60;66.10;;;;;;4939634;29;20059;-87
2021/08/21 05:48:41;;;;;;;3.00;1.80;;;23.60;65.80;;;;;;4955084;28;20067;-87
2021/08/21 05:51:07;;;;;;;6.75;2.20;;;23.60;66.50;;;;;;4949514;29;20130;-86
2021/08/21 05:53:33;;;;;;;3.08;1.60;;;23.60;65.90;;;;;;4948014;29;20123;-86
2021/08/21 05:55:59;;;;;;;3.08;1.83;;;23.60;65.60;;;;;;4952228;28;20089;-93
2021/08/21 05:58:25;;;;;;;4.10;2.45;;;23.60;66.30;;;;;;4957678;28;20491;-89
2021/08/21 06:00:51;;;;;;;4.22;1.88;;;23.60;66.10;;;;;;4955809;28;20027;-85
2021/08/21 06:03:18;;;;;;;3.83;2.10;;;23.70;66.00;;;;;;4956593;29;20039;-90
2021/08/21 06:05:45;;;;;;;2.10;1.88;;;23.80;65.70;;;;;;4942045;28;20028;-88
2021/08/21 06:08:11;;;;;;;3.42;1.90;;;23.70;65.40;;;;;;4931046;29;20086;-89
2021/08/21 06:10:43;;;;;;;4.10;1.95;;;23.80;65.70;;;;;;4944683;29;20462;-92
2021/08/21 06:13:13;;;;;;;3.33;2.10;;;24.00;65.70;;;;;;4935659;29;20518;-92
2021/08/21 06:15:39;;;;;;;2.63;1.80;;;24.20;65.50;;;;;;4940499;29;20047;-86
2021/08/21 06:18:05;;;;;;;4.45;1.70;;;24.20;65.00;;;;;;4947178;29;20082;-88
2021/08/21 06:20:31;;;;;;;2.47;1.90;;;24.30;64.90;;;;;;4949315;28;20040;-81
2021/08/21 06:22:57;;;;;;;4.80;2.10;;;24.50;65.50;;;;;;4943259;29;20050;-79
2021/08/21 06:25:23;;;;;;;4.07;1.90;;;24.60;65.10;;;;;;4945131;28;20027;-91
2021/08/21 06:27:50;;;;;;;3.72;1.80;;;24.60;65.30;;;;;;4929209;29;20075;-81
2021/08/21 06:30:16;;;;;;;4.63;2.10;;;24.60;65.40;;;;;;4936279;29;20457;-85
2021/08/21 06:32:42;;;;;;;3.55;1.63;;;24.60;64.40;;;;;;4935096;29;20123;-83
2021/08/21 06:35:09;;;;;;;4.32;2.10;;;24.50;64.20;;;;;;4935011;29;20098;-95
2021/08/21 06:37:37;;;;;;;6.88;2.40;;;24.50;64.70;;;;;;4919828;29;20094;-88
2021/08/21 06:40:04;;;;;;;4.00;2.05;;;24.50;64.50;;;;;;4936497;29;20038;-88
2021/08/21 06:42:30;;;;;;;2.58;1.80;;;24.60;64.40;;;;;;4935031;29;20042;-90
2021/08/21 06:45:25;;;;;;;2.27;2.07;;;24.80;65.00;;;;;;4930925;29;20649;-89
2021/08/21 06:47:54;;;;;;;2.33;1.85;;;25.00;64.30;;;;;;4937353;29;20067;-88
2021/08/21 06:50:21;;;;;;;5.90;2.05;;;25.00;63.80;;;;;;4919617;29;20110;-90
2021/08/21 06:52:48;;;;;;;4.95;2.40;;;24.90;63.60;;;;;;4938176;29;20046;-95
2021/08/21 06:55:16;;;;;;;3.75;2.00;;;24.80;64.00;;;;;;4925149;29;20043;-92
2021/08/21 06:57:45;;;;;;;2.38;1.83;;;24.60;64.00;;;;;;4940856;29;20515;-93
2021/08/21 07:00:11;;;;;;;2.97;2.00;;;24.60;64.60;;;;;;4935808;29;20510;-91
2021/08/21 07:02:37;;;;;;;3.17;1.92;;;24.60;64.60;;;;;;4921907;29;20046;-92
2021/08/21 07:05:04;;;;;;;7.45;2.35;;;24.60;64.70;;;;;;4920282;29;20414;-90
2021/08/21 07:07:30;;;;;;;3.42;2.40;;;24.60;64.80;;;;;;4934687;29;20063;-85
2021/08/21 07:10:00;;;;;;;2.50;2.30;;;24.50;64.90;;;;;;4936644;29;20083;-89
2021/08/21 07:12:26;;;;;;;5.38;2.67;;;24.50;64.60;;;;;;4935744;29;20039;-87
2021/08/21 07:14:52;;;;;;;7.10;4.90;;;24.40;64.70;;;;;;4941565;29;20068;-93
2021/08/21 07:17:18;;;;;;;10.35;7.72;;;24.40;65.40;;;;;;4934395;29;20044;-84
2021/08/21 07:19:44;;;;;;;8.93;5.55;;;24.40;66.10;;;;;;4935495;29;20031;-89
2021/08/21 07:22:10;;;;;;;8.25;3.75;;;24.30;66.60;;;;;;4944373;29;20028;-89
2021/08/21 07:24:36;;;;;;;3.40;3.10;;;24.30;65.70;;;;;;4943715;29;20570;-88
2021/08/21 07:27:02;;;;;;;3.80;2.38;;;24.40;65.70;;;;;;4941187;29;20146;-89
2021/08/21 07:29:28;;;;;;;3.15;2.58;;;24.30;65.30;;;;;;4918879;29;20067;-90
2021/08/21 07:31:54;;;;;;;6.75;2.50;;;24.20;65.50;;;;;;4938393;29;20095;-89
2021/08/21 07:34:20;;;;;;;4.15;2.38;;;24.20;65.50;;;;;;4944660;29;20170;-89
2021/08/21 07:36:46;;;;;;;2.90;2.53;;;24.30;65.50;;;;;;4937995;29;20126;-86
2021/08/21 07:39:12;;;;;;;5.22;2.28;;;24.30;65.60;;;;;;4934519;29;20072;-89
2021/08/21 07:41:38;;;;;;;3.95;2.42;;;24.30;65.60;;;;;;4935393;29;20039;-82
2021/08/21 07:44:04;;;;;;;5.60;2.85;;;24.20;65.30;;;;;;4934660;29;20130;-84
2021/08/21 07:46:31;;;;;;;3.88;2.20;;;24.20;65.60;;;;;;4934866;29;20051;-85
2021/08/21 07:48:57;;;;;;;3.28;2.40;;;24.20;65.80;;;;;;4918086;29;20056;-87
2021/08/21 07:51:23;;;;;;;5.78;2.60;;;24.20;65.50;;;;;;4918748;29;20519;-86
2021/08/21 07:53:49;;;;;;;4.32;2.42;;;24.10;65.40;;;;;;4934934;29;20062;-80
2021/08/21 07:56:15;;;;;;;6.45;2.38;;;24.10;65.80;;;;;;4934852;29;20051;-83
2021/08/21 07:58:41;;;;;;;6.78;2.55;;;24.00;66.10;;;;;;4917971;29;20033;-87
2021/08/21 08:01:08;;;;;;;7.32;5.38;;;24.00;66.10;;;;;;4922017;29;20031;-88
2021/08/21 08:03:34;;;;;;;4.35;3.38;;;24.00;67.20;;;;;;4927032;29;20126;-85
2021/08/21 08:06:00;;;;;;;6.22;3.25;;;24.10;67.30;;;;;;4943265;29;20040;-88
2021/08/21 08:08:25;;;;;;;5.10;2.70;;;24.20;67.80;;;;;;4936939;29;20036;-80
2021/08/21 08:10:52;;;;;;;5.22;2.70;;;24.30;67.20;;;;;;4935008;29;20118;-84
2021/08/21 08:13:18;;;;;;;6.88;2.22;;;24.30;66.50;;;;;;4933927;29;20098;-83
2021/08/21 08:15:44;;;;;;;5.70;2.38;;;24.20;66.10;;;;;;4918011;29;20188;-84
2021/08/21 08:18:10;;;;;;;4.47;2.38;;;24.20;66.20;;;;;;4933334;29;20035;-84
2021/08/21 08:20:36;;;;;;;6.88;2.65;;;24.20;66.10;;;;;;4934973;29;20094;-84
2021/08/21 08:23:03;;;;;;;3.63;2.30;;;24.30;67.00;;;;;;4934979;29;20126;-83
2021/08/21 08:25:30;;;;;;;3.53;2.45;;;24.30;66.60;;;;;;4920006;29;20406;-83
2021/08/21 08:27:56;;;;;;;3.45;2.45;;;24.30;66.20;;;;;;4938643;29;20063;-84
2021/08/21 08:30:22;;;;;;;3.72;2.00;;;24.40;66.80;;;;;;4937825;29;20036;-84
2021/08/21 08:32:48;;;;;;;3.92;2.30;;;24.40;67.40;;;;;;4937077;29;20035;-83
2021/08/21 08:35:14;;;;;;;4.55;2.45;;;24.60;67.20;;;;;;4938446;29;20507;-84
2021/08/21 08:37:41;;;;;;;3.95;2.22;;;24.60;66.30;;;;;;4937102;29;20042;-84
2021/08/21 08:40:09;;;;;;;3.92;2.22;;;24.60;66.10;;;;;;4937136;29;20514;-84
2021/08/21 08:42:39;;;;;;;3.63;2.20;;;24.70;66.30;;;;;;4920996;29;20040;-84
2021/08/21 08:45:06;;;;;;;5.22;2.03;;;24.70;66.60;;;;;;4936583;29;20066;-84
2021/08/21 08:47:33;;;;;;;5.07;2.30;;;24.80;66.90;;;;;;4921062;29;20079;-83
2021/08/21 08:50:03;;;;;;;2.20;2.00;;;24.80;66.80;;;;;;4938267;29;20047;-83
2021/08/21 08:52:30;;;;;;;4.57;2.75;;;24.80;66.30;;;;;;4936937;29;20046;-84
2021/08/21 08:54:56;;;;;;;4.63;2.20;;;24.80;65.90;;;;;;4937015;29;20067;-84
2021/08/21 08:57:43;;;;;;;4.90;2.88;;;24.80;65.80;;;;;;4936624;29;20121;-84
2021/08/21 09:00:15;;;;;;;3.55;2.33;;;24.70;66.10;;;;;;4936726;29;20470;-84
2021/08/21 09:02:55;;;;;;;4.43;2.47;;;24.80;66.40;;;;;;4936690;29;20039;-84
2021/08/21 09:05:23;;;;;;;2.88;2.33;;;24.80;66.00;;;;;;4936692;29;20036;-84
2021/08/21 09:07:55;;;;;;;3.63;2.58;;;24.80;66.70;;;;;;4936791;29;20039;-84
2021/08/21 09:10:27;;;;;;;3.30;2.20;;;24.80;67.00;;;;;;4938074;29;20095;-84
2021/08/21 09:13:07;;;;;;;2.45;2.25;;;24.90;67.10;;;;;;4936721;29;20122;-84
2021/08/21 09:15:37;;;;;;;4.13;2.28;;;24.90;66.30;;;;;;4937755;29;20047;-84
2021/08/21 09:18:15;;;;;;;5.40;2.55;;;24.90;65.90;;;;;;4937511;29;20475;-84
2021/08/21 09:20:47;;;;;;;4.63;2.75;;;24.90;66.20;;;;;;4937589;29;20043;-84
2021/08/21 09:23:39;;;;;;;2.45;2.10;;;25.00;66.40;;;;;;4936461;29;20103;-84
2021/08/21 09:26:13;;;;;;;3.55;2.40;;;25.00;66.70;;;;;;4936290;29;20032;-83
2021/08/21 09:28:41;;;;;;;3.65;2.33;;;25.00;65.80;;;;;;4936095;29;20043;-84
2021/08/21 09:31:11;;;;;;;4.68;2.60;;;25.00;65.90;;;;;;4936085;29;20427;-84
2021/08/21 09:33:40;;;;;;;3.63;2.28;;;25.10;66.10;;;;;;4920316;29;20046;-84
2021/08/21 09:36:13;;;;;;;2.22;1.77;;;25.10;66.40;;;;;;4936468;29;20061;-84
2021/08/21 09:38:40;;;;;;;4.22;2.25;;;25.10;66.60;;;;;;4920382;29;20036;-84
2021/08/21 09:41:09;;;;;;;5.18;2.60;;;25.20;66.60;;;;;;4936110;29;20032;-84
2021/08/21 09:43:37;;;;;;;3.00;2.08;;;25.30;66.90;;;;;;4936132;29;20048;-84
2021/08/21 09:46:18;;;;;;;3.17;2.10;;;25.30;66.80;;;;;;4935769;29;20055;-84
2021/08/21 09:49:01;;;;;;;3.10;2.25;;;25.30;66.80;;;;;;4937111;29;20421;-84
2021/08/21 09:51:33;;;;;;;3.25;2.28;;;25.40;66.80;;;;;;4919962;29;20039;-84
2021/08/21 09:54:03;;;;;;;4.10;2.40;;;25.50;66.70;;;;;;4919945;29;20040;-84
2021/08/21 09:56:34;;;;;;;4.38;2.50;;;25.50;66.80;;;;;;4919784;29;20040;-84
2021/08/21 09:59:05;;;;;;;3.50;2.30;;;25.50;66.80;;;;;;4935951;29;20047;-84
2021/08/21 10:01:32;;;;;;;3.47;2.00;;;25.60;67.00;;;;;;4935748;29;20035;-84
2021/08/21 10:04:00;;;;;;;2.70;2.47;;;25.60;66.90;;;;;;4919819;29;20074;-83
2021/08/21 10:06:26;;;;;;;3.90;2.83;;;25.60;66.60;;;;;;4935563;29;20095;-82
2021/08/21 10:09:11;;;;;;;3.78;2.33;;;25.60;66.80;;;;;;4935575;29;20051;-84
2021/08/21 10:11:38;;;;;;;2.95;2.22;;;25.60;66.80;;;;;;4935463;29;20046;-84
2021/08/21 10:14:04;;;;;;;3.65;2.60;;;25.70;66.70;;;;;;4935530;29;20094;-84
2021/08/21 10:16:32;;;;;;;4.60;2.65;;;25.70;67.00;;;;;;4935420;29;20040;-84
2021/08/21 10:18:59;;;;;;;2.33;1.90;;;25.70;66.80;;;;;;4919671;29;20519;-84
2021/08/21 10:21:25;;;;;;;2.80;2.47;;;25.80;66.70;;;;;;4936678;29;20042;-84
2021/08/21 10:23:52;;;;;;;2.72;2.00;;;25.80;66.90;;;;;;4936388;29;20035;-83
2021/08/21 10:26:27;;;;;;;4.82;2.42;;;25.80;66.90;;;;;;4935200;29;20483;-85
2021/08/21 10:28:55;;;;;;;2.85;2.38;;;25.90;67.00;;;;;;4935274;29;20035;-84
2021/08/21 10:31:37;;;;;;;3.88;2.20;;;25.90;67.00;;;;;;4935240;29;20495;-84
2021/08/21 10:34:05;;;;;;;4.10;2.47;;;25.90;66.70;;;;;;4935051;29;20041;-84
2021/08/21 10:36:52;;;;;;;3.13;2.30;;;25.90;66.80;;;;;;4934904;29;20043;-84
2021/08/21 10:39:35;;;;;;;3.90;2.30;;;25.90;67.20;;;;;;4936269;29;20414;-84
2021/08/21 10:42:30;;;;;;;2.40;1.73;;;25.90;66.20;;;;;;4936304;29;20028;-83
2021/08/21 10:45:00;;;;;;;3.83;2.40;;;25.90;66.20;;;;;;4935946;29;20123;-82
2021/08/21 10:47:32;;;;;;;3.90;2.42;;;25.90;65.90;;;;;;4935737;29;20047;-83
2021/08/21 10:49:59;;;;;;;3.92;2.53;;;25.90;66.00;;;;;;4934917;29;20476;-84
2021/08/21 10:52:46;;;;;;;2.75;2.30;;;25.90;66.40;;;;;;4918959;29;20086;-83
2021/08/21 10:55:16;;;;;;;3.75;2.22;;;26.00;65.60;;;;;;4929187;29;20044;-83
2021/08/21 10:58:04;;;;;;;3.65;2.30;;;26.00;65.70;;;;;;4934536;29;20035;-83
2021/08/21 11:00:39;;;;;;;3.30;2.15;;;25.90;64.70;;;;;;4934543;29;20046;-83
2021/08/21 11:03:14;;;;;;;2.67;2.10;;;25.90;65.70;;;;;;4935493;29;20155;-84
2021/08/21 11:06:01;;;;;;;4.28;1.92;;;25.90;64.80;;;;;;4934257;29;20040;-82
2021/08/21 11:08:32;;;;;;;3.22;2.25;;;25.90;65.40;;;;;;4935263;29;20654;-83
2021/08/21 11:14:00;;;;;;;4.38;2.25;;;25.90;65.60;;;;;;4935660;29;20054;-83
2021/08/21 11:16:57;;;;;;;3.08;2.33;;;25.90;65.70;;;;;;4934322;29;20063;-84
2021/08/21 11:19:47;;;;;;;4.80;2.20;;;25.90;65.70;;;;;;4918449;29;20079;-83
2021/08/21 11:22:20;;;;;;;3.35;2.30;;;26.00;65.30;;;;;;4918364;29;20036;-83
2021/08/21 11:24:52;;;;;;;3.47;2.03;;;26.00;64.20;;;;;;4934052;29;20036;-83
2021/08/21 11:27:35;;;;;;;2.95;2.05;;;25.90;63.30;;;;;;4935233;29;20189;-83
2021/08/21 11:30:07;;;;;;;2.72;2.08;;;25.80;63.30;;;;;;4934020;29;20041;-83
2021/08/21 11:32:44;;;;;;;3.05;2.03;;;25.80;63.80;;;;;;4935289;29;20044;-83
2021/08/21 11:35:30;;;;;;;4.13;2.20;;;25.80;64.10;;;;;;4935374;29;20038;-83
2021/08/21 11:38:05;;;;;;;2.42;2.22;;;25.80;63.50;;;;;;4935154;29;20035;-83
2021/08/21 11:40:42;;;;;;;3.00;2.10;;;25.80;63.20;;;;;;4935168;29;20047;-83
2021/08/21 11:43:42;;;;;;;7.07;2.75;;;25.70;63.30;;;;;;4935271;29;20479;-83
2021/08/21 11:46:10;;;;;;;2.83;2.35;;;25.70;63.40;;;;;;4934574;29;20056;-83
2021/08/21 11:48:39;;;;;;;3.40;2.25;;;25.60;63.20;;;;;;4934951;29;20070;-84
2021/08/21 11:51:06;;;;;;;3.05;2.40;;;25.60;63.30;;;;;;4933490;29;20042;-83
2021/08/21 11:53:42;;;;;;;2.72;1.90;;;25.60;63.80;;;;;;4934743;29;20503;-84
2021/08/21 11:56:08;;;;;;;3.00;2.00;;;25.60;64.60;;;;;;4933413;29;20044;-84
2021/08/21 11:58:37;;;;;;;3.85;2.13;;;25.70;64.70;;;;;;4933489;29;20095;-84
2021/08/21 12:01:12;;;;;;;2.55;2.00;;;25.70;64.70;;;;;;4917028;29;20035;-84
2021/08/21 12:06:30;;;;;;;2.85;1.80;;;25.70;64.60;;;;;;4934488;29;19915;-84
2021/08/21 12:09:14;;;;;;;3.50;1.95;;;25.70;64.80;;;;;;4933224;29;20039;-84
2021/08/21 12:11:42;;;;;;;3.00;1.90;;;25.80;64.50;;;;;;4933279;29;20477;-84
2021/08/21 12:14:09;;;;;;;5.93;2.70;;;25.70;63.50;;;;;;4917482;29;20099;-83
2021/08/21 12:16:37;;;;;;;4.25;2.10;;;25.70;63.50;;;;;;4933514;29;20074;-84
2021/08/21 12:19:05;;;;;;;3.05;2.25;;;25.70;63.70;;;;;;4933550;29;20020;-84
2021/08/21 12:21:31;;;;;;;3.72;1.75;;;25.70;64.40;;;;;;4933489;29;20046;-84
2021/08/21 12:23:57;;;;;;;4.47;1.85;;;25.80;64.60;;;;;;4934699;29;20415;-84
2021/08/21 12:26:45;;;;;;;3.05;1.92;;;25.80;64.70;;;;;;4934576;29;20531;-84
2021/08/21 12:29:27;;;;;;;2.88;1.90;;;25.80;64.60;;;;;;4934421;29;20091;-84
2021/08/21 12:31:54;;;;;;;2.53;1.60;;;25.80;63.60;;;;;;4933452;29;20047;-84
2021/08/21 12:34:21;;;;;;;2.17;1.98;;;25.80;63.50;;;;;;4933173;29;20036;-84
2021/08/21 12:36:48;;;;;;;3.15;1.80;;;25.80;63.70;;;;;;4934409;29;20525;-84
2021/08/21 12:39:21;;;;;;;3.40;1.90;;;25.80;64.20;;;;;;4933789;29;20036;-84
2021/08/21 12:42:05;;;;;;;2.83;2.08;;;25.80;64.30;;;;;;4933170;29;20032;-84
2021/08/21 12:44:35;;;;;;;2.60;1.70;;;25.90;64.70;;;;;;4933068;29;20058;-84
2021/08/21 12:47:16;;;;;;;5.25;2.25;;;25.90;64.20;;;;;;4934519;29;20039;-84
2021/08/21 12:49:45;;;;;;;3.38;1.80;;;25.90;64.10;;;;;;4933031;29;20038;-83
2021/08/21 12:52:10;;;;;;;4.35;2.53;;;25.90;64.20;;;;;;4934394;29;20027;-84
2021/08/21 12:54:39;;;;;;;2.67;1.70;;;25.90;64.70;;;;;;4934315;29;20135;-84
2021/08/21 12:57:18;;;;;;;4.07;1.75;;;26.00;64.30;;;;;;4933167;29;20047;-84
2021/08/21 12:59:46;;;;;;;3.20;1.80;;;26.00;64.20;;;;;;4934343;29;20109;-83
2021/08/21 13:02:14;;;;;;;2.78;1.85;;;26.00;64.20;;;;;;4934243;29;20028;-84
2021/08/21 13:04:41;;;;;;;4.13;2.28;;;26.00;63.70;;;;;;4934245;29;20055;-84
2021/08/21 13:07:10;;;;;;;7.43;2.28;;;26.00;63.60;;;;;;4934173;29;20130;-84
2021/08/21 13:09:39;;;;;;;2.58;1.88;;;26.00;63.80;;;;;;4934185;29;20411;-84
2021/08/21 13:12:08;;;;;;;3.08;1.80;;;26.00;63.90;;;;;;4935659;29;20035;-84
2021/08/21 13:14:35;;;;;;;4.13;1.90;;;26.00;64.20;;;;;;4937802;29;20418;-84
2021/08/21 13:17:03;;;;;;;2.17;1.98;;;26.00;64.40;;;;;;4937646;29;20058;-83
2021/08/21 13:19:28;;;;;;;2.92;1.98;;;26.00;64.20;;;;;;4937594;29;20118;-84